Time;durP1;ratioP1;P1;durP2;ratioP2;P2;SDS_P1;SDS_P2;PMS_P1;PMS_P2;Temp;Humidity;BMP_temperature;BMP_pressure;BME280_temperature;BME280_humidity;BME280_pressure;Samples;Min_cycle;Max_cycle;Signal;HPM_P1;HPM_P2
2022/03/12 00:03:05;;;;;;;7.22;5.25;;;;;;;8.49;24.50;100373.78;10353681;28;20127;-64
2022/03/12 00:08:08;;;;;;;6.90;5.07;;;;;;;8.43;24.52;100381.31;10348394;28;20591;-62
2022/03/12 00:13:09;;;;;;;8.50;5.43;;;;;;;8.27;24.67;100397.41;10360119;28;20054;-62
2022/03/12 00:18:11;;;;;;;6.60;5.00;;;;;;;8.17;24.61;100383.09;10359492;28;20053;-62
2022/03/12 00:23:16;;;;;;;7.45;5.63;;;;;;;8.29;24.58;100398.19;10357016;28;20053;-62
2022/03/12 00:28:18;;;;;;;;;;;;;;;7.79;24.36;100319.34;10362739;28;20050;-61
2022/03/12 00:33:21;;;;;;;8.82;5.50;;;;;;;8.21;24.87;100395.19;10359640;28;20432;-62
2022/03/12 00:38:22;;;;;;;8.20;5.53;;;;;;;8.18;24.67;100393.63;10356339;28;20052;-62
2022/03/12 00:43:24;;;;;;;7.03;5.80;;;;;;;8.03;24.55;100386.69;10366042;28;20052;-62
2022/03/12 00:48:25;;;;;;;6.95;5.90;;;;;;;8.02;25.17;100393.78;10357135;28;20064;-61
2022/03/12 00:53:40;;;;;;;7.72;6.10;;;;;;;7.97;25.19;100388.81;10360344;28;20057;-63
2022/03/12 00:58:45;;;;;;;6.85;5.95;;;;;;;7.94;25.05;100388.16;10357088;28;20053;-62
2022/03/12 01:03:46;;;;;;;7.22;6.50;;;;;;;8.00;25.56;100392.19;10360712;28;20096;-62
2022/03/12 01:08:48;;;;;;;8.82;6.35;;;;;;;7.97;25.27;100398.53;10356104;28;20042;-62
2022/03/12 01:13:49;;;;;;;6.93;6.15;;;;;;;7.93;25.08;100408.50;10357972;28;20710;-61
2022/03/12 01:18:51;;;;;;;7.57;6.43;;;;;;;7.77;25.29;100392.78;10358669;28;20727;-62
2022/03/12 01:23:53;;;;;;;6.38;5.50;;;;;;;7.80;25.39;100412.94;10355374;28;20053;-63
2022/03/12 01:28:55;;;;;;;5.97;5.38;;;;;;;7.78;25.32;100415.69;10353384;28;20048;-62
2022/03/12 01:33:56;;;;;;;9.82;5.57;;;;;;;7.74;25.24;100398.28;10359874;28;20129;-61
2022/03/12 01:38:59;;;;;;;6.95;5.43;;;;;;;7.56;25.78;100404.81;10355493;28;20048;-61
2022/03/12 01:44:02;;;;;;;6.97;5.82;;;;;;;7.60;25.74;100395.72;10357168;28;20525;-62
2022/03/12 01:49:16;;;;;;;8.38;6.10;;;;;;;7.58;25.68;100403.75;10360318;28;20509;-61
2022/03/12 01:54:24;;;;;;;5.38;4.88;;;;;;;7.48;25.45;100388.56;10361184;28;20096;-62
2022/03/12 01:59:25;;;;;;;8.40;5.50;;;;;;;7.60;25.83;100408.97;10354801;28;20046;-61
2022/03/12 02:04:29;;;;;;;7.60;4.80;;;;;;;7.58;25.53;100390.50;10357411;28;20053;-60
2022/03/12 02:09:31;;;;;;;7.35;5.38;;;;;;;7.50;25.51;100411.34;10354600;28;20191;-61
2022/03/12 02:14:32;;;;;;;7.45;5.18;;;;;;;7.44;25.83;100388.75;10353508;28;20054;-61
2022/03/12 02:19:35;;;;;;;5.60;5.03;;;;;;;7.47;25.45;100421.31;10358377;28;20045;-62
2022/03/12 02:24:38;;;;;;;6.40;5.57;;;;;;;7.32;25.88;100402.78;10359820;28;20049;-61
2022/03/12 02:29:42;;;;;;;7.53;5.45;;;;;;;7.25;25.62;100396.19;10354969;28;20578;-62
2022/03/12 02:34:48;;;;;;;7.15;5.50;;;;;;;7.19;25.40;100407.16;10353254;28;20099;-62
2022/03/12 02:39:50;;;;;;;8.18;5.03;;;;;;;7.27;25.81;100418.13;10355385;28;20068;-62
2022/03/12 02:44:54;;;;;;;5.85;4.47;;;;;;;7.32;25.40;100417.84;10354000;28;20053;-62
2022/03/12 02:50:03;;;;;;;5.53;4.50;;;;;;;7.21;25.81;100400.84;10353915;28;20042;-61
2022/03/12 02:55:05;;;;;;;7.13;4.57;;;;;;;7.31;25.53;100416.13;10356323;28;20061;-62
2022/03/12 03:00:08;;;;;;;5.38;4.88;;;;;;;7.29;25.39;100424.16;10353889;28;20132;-61
2022/03/12 03:10:34;;;;;;;9.68;5.45;;;;;;;7.30;25.34;100427.69;10351185;28;20045;-61
2022/03/12 03:15:39;;;;;;;5.38;4.88;;;;;;;7.23;25.54;100435.16;10351050;28;20073;-61
2022/03/12 03:20:40;;;;;;;6.07;4.40;;;;;;;7.20;25.44;100441.50;10354113;28;20559;-63
2022/03/12 03:25:42;;;;;;;6.07;4.68;;;;;;;7.23;25.61;100443.09;10352697;28;20063;-63
2022/03/12 03:30:44;;;;;;;6.78;5.35;;;;;;;7.28;25.78;100451.63;10354200;28;20133;-62
2022/03/12 03:35:46;;;;;;;5.13;4.53;;;;;;;7.33;25.47;100456.63;10348863;28;20068;-62
2022/03/12 03:40:48;;;;;;;6.00;5.38;;;;;;;6.98;25.58;100420.84;10351822;28;20045;-62
2022/03/12 03:45:54;;;;;;;5.07;4.35;;;;;;;7.23;25.79;100472.22;10348170;28;20056;-61
2022/03/12 03:51:01;;;;;;;5.53;4.82;;;;;;;7.13;25.81;100477.25;10350862;28;20629;-63
2022/03/12 03:56:04;;;;;;;7.35;5.28;;;;;;;6.97;26.00;100477.34;10352225;28;20053;-62
2022/03/12 04:01:14;;;;;;;6.20;5.13;;;;;;;6.92;25.93;100466.22;10355952;28;20526;-62
2022/03/12 04:06:18;;;;;;;5.32;4.80;;;;;;;7.03;25.98;100487.56;10353551;28;20141;-63
2022/03/12 04:11:25;;;;;;;6.57;5.15;;;;;;;6.94;26.16;100488.13;10355386;28;20778;-62
2022/03/12 04:16:27;;;;;;;5.72;5.00;;;;;;;6.75;26.37;100474.34;10352695;28;20058;-60
2022/03/12 04:21:29;;;;;;;6.60;4.97;;;;;;;6.68;26.39;100472.06;10350938;28;20140;-65
2022/03/12 04:26:33;;;;;;;7.65;5.30;;;;;;;6.73;26.66;100496.44;10354292;28;20514;-61
2022/03/12 04:31:35;;;;;;;5.93;5.20;;;;;;;6.72;26.45;100521.22;10347228;28;20054;-62
2022/03/12 04:36:38;;;;;;;5.60;4.97;;;;;;;6.65;26.74;100517.22;10348181;28;20708;-62
2022/03/12 04:41:40;;;;;;;6.07;5.03;;;;;;;6.69;26.75;100526.66;10349474;28;20050;-62
2022/03/12 04:46:41;;;;;;;6.75;5.00;;;;;;;6.60;26.83;100521.91;10352276;28;20095;-62
2022/03/12 04:51:43;;;;;;;6.78;5.13;;;;;;;6.29;26.92;100486.72;10354103;28;20057;-61
2022/03/12 04:56:45;;;;;;;7.07;5.28;;;;;;;6.32;27.14;100518.28;10355796;28;20735;-63
2022/03/12 05:01:46;;;;;;;6.57;5.13;;;;;;;6.32;26.91;100525.34;10356119;28;20045;-60
2022/03/12 05:06:48;;;;;;;9.38;5.95;;;;;;;6.35;26.94;100533.09;10357454;28;20053;-61
2022/03/12 05:11:50;;;;;;;4.68;4.28;;;;;;;6.25;26.91;100524.84;10359239;28;20050;-60
2022/03/12 05:16:51;;;;;;;7.72;5.53;;;;;;;6.21;27.04;100535.69;10359828;28;20157;-61
2022/03/12 05:21:52;;;;;;;5.63;4.70;;;;;;;6.27;26.97;100551.19;10357177;28;20049;-60
2022/03/12 05:26:54;;;;;;;6.20;4.53;;;;;;;6.20;27.06;100545.44;10354496;28;20060;-61
2022/03/12 05:31:55;;;;;;;5.85;5.25;;;;;;;6.14;27.17;100527.25;10361794;28;20148;-61
2022/03/12 05:36:57;;;;;;;4.85;4.20;;;;;;;6.12;27.27;100545.00;10359280;28;20037;-61
2022/03/12 05:41:59;;;;;;;5.50;4.35;;;;;;;6.19;26.97;100562.22;10357503;28;20128;-62
2022/03/12 05:47:02;;;;;;;5.25;4.20;;;;;;;6.10;27.15;100560.09;10358162;28;20328;-62
2022/03/12 05:52:04;;;;;;;6.47;4.90;;;;;;;6.03;27.22;100553.47;10358162;28;20048;-61
2022/03/12 05:57:09;;;;;;;6.35;5.25;;;;;;;5.98;27.28;100551.91;10347767;28;20061;-61
2022/03/12 06:02:11;;;;;;;7.32;5.25;;;;;;;5.87;27.30;100533.16;10344855;28;20045;-62
2022/03/12 06:07:12;;;;;;;6.25;4.50;;;;;;;5.84;27.33;100534.19;10343107;28;20041;-61
2022/03/12 06:12:17;;;;;;;5.75;4.30;;;;;;;5.92;27.38;100552.25;10339452;28;20471;-62
2022/03/12 06:17:19;;;;;;;5.97;4.88;;;;;;;5.76;27.26;100538.19;10340461;28;20630;-62
2022/03/12 06:22:21;;;;;;;6.00;4.85;;;;;;;5.90;27.19;100543.56;10339651;28;20053;-61
2022/03/12 06:27:22;;;;;;;6.75;4.95;;;;;;;5.89;27.16;100556.84;10344724;28;20049;-60
2022/03/12 06:32:24;;;;;;;5.75;4.75;;;;;;;5.96;27.12;100580.19;10344900;28;20053;-62
2022/03/12 06:37:25;;;;;;;7.65;5.28;;;;;;;6.06;27.14;100574.44;10347443;28;20060;-62
2022/03/12 06:42:31;;;;;;;6.00;5.40;;;;;;;6.17;27.24;100585.22;10342499;28;20049;-61
2022/03/12 06:47:33;;;;;;;6.40;4.85;;;;;;;6.20;26.93;100574.50;10338258;28;20136;-61
2022/03/12 06:52:36;;;;;;;6.63;4.68;;;;;;;6.44;26.83;100588.09;10335743;28;20082;-59
2022/03/12 06:57:38;;;;;;;6.32;5.22;;;;;;;6.49;26.42;100590.47;10341100;28;22518;-62
2022/03/12 07:02:40;;;;;;;7.30;5.35;;;;;;;6.73;26.07;100582.91;10342304;28;20144;-60
2022/03/12 07:07:41;;;;;;;6.35;5.07;;;;;;;6.45;26.57;100568.63;10334907;28;20131;-58
2022/03/12 07:12:44;;;;;;;5.70;4.90;;;;;;;6.96;26.21;100594.75;10335416;28;20058;-60
2022/03/12 07:17:46;;;;;;;5.93;5.43;;;;;;;6.94;26.09;100582.56;10338360;28;20052;-59
2022/03/12 07:22:48;;;;;;;5.97;4.93;;;;;;;7.26;25.82;100580.59;10341079;28;20056;-60
2022/03/12 07:27:49;;;;;;;6.68;5.53;;;;;;;7.42;25.59;100584.00;10339398;28;20136;-61
2022/03/12 07:32:51;;;;;;;6.63;4.80;;;;;;;7.50;25.77;100591.47;10348948;28;20109;-61
2022/03/12 07:37:53;;;;;;;8.65;5.18;;;;;;;7.67;25.35;100590.44;10341662;28;20073;-61
2022/03/12 07:42:55;;;;;;;7.32;5.40;;;;;;;7.74;25.46;100594.38;10340354;28;20203;-61
2022/03/12 07:47:56;;;;;;;5.82;5.22;;;;;;;8.17;25.04;100600.53;10337871;28;20324;-60
2022/03/12 07:52:58;;;;;;;9.27;5.05;;;;;;;8.40;25.29;100585.78;10338555;28;20049;-61
2022/03/12 07:57:59;;;;;;;5.75;5.05;;;;;;;8.49;24.87;100590.50;10340450;28;20046;-61
2022/03/12 08:03:02;;;;;;;6.30;5.28;;;;;;;8.85;24.72;100603.09;10338048;28;21101;-60
2022/03/12 08:08:04;;;;;;;5.45;4.93;;;;;;;9.06;24.19;100605.25;10339610;28;20057;-60
2022/03/12 08:13:05;;;;;;;5.72;4.90;;;;;;;9.26;23.83;100613.66;10337849;28;20057;-60
2022/03/12 08:18:07;;;;;;;5.95;5.13;;;;;;;9.36;23.50;100620.03;10333174;28;20280;-59
2022/03/12 08:23:08;;;;;;;4.97;4.47;;;;;;;9.37;23.65;100625.22;10341366;28;20052;-60
2022/03/12 08:28:10;;;;;;;5.88;4.75;;;;;;;9.65;23.65;100606.50;10337328;28;20080;-61
2022/03/12 08:33:12;;;;;;;7.20;5.05;;;;;;;9.90;23.19;100609.09;10348760;28;20066;-61
2022/03/12 08:38:14;;;;;;;8.65;5.32;;;;;;;10.01;22.82;100618.97;10350743;28;20537;-60
2022/03/12 08:43:15;;;;;;;7.53;5.22;;;;;;;10.13;23.05;100595.94;10347745;28;20057;-61
2022/03/12 08:48:17;;;;;;;5.95;5.30;;;;;;;10.24;22.89;100606.66;10344874;28;20069;-59
2022/03/12 08:53:20;;;;;;;7.85;5.78;;;;;;;10.61;22.79;100617.25;10348090;28;20053;-59
2022/03/12 08:58:23;;;;;;;6.70;6.00;;;;;;;10.95;22.85;100630.69;10352752;28;20059;-60
2022/03/12 09:03:25;;;;;;;7.78;5.47;;;;;;;11.14;22.55;100627.47;10357707;28;20702;-60
2022/03/12 09:08:27;;;;;;;6.65;5.85;;;;;;;11.55;22.21;100611.03;10357237;28;20052;-61
2022/03/12 09:13:28;;;;;;;5.97;5.32;;;;;;;11.87;22.27;100619.13;10353870;28;20370;-62
2022/03/12 09:18:30;;;;;;;6.05;5.38;;;;;;;12.38;21.90;100612.38;10351864;28;20547;-60
2022/03/12 09:23:31;;;;;;;6.10;5.53;;;;;;;12.85;21.50;100610.25;10337033;28;20045;-61
2022/03/12 09:28:32;;;;;;;7.43;5.35;;;;;;;13.35;21.01;100612.25;10349278;28;20060;-61
2022/03/12 09:33:35;;;;;;;7.28;6.18;;;;;;;13.73;20.69;100593.84;10346024;28;20608;-61
2022/03/12 09:38:37;;;;;;;8.40;6.43;;;;;;;14.16;20.50;100598.03;10347012;28;20063;-61
2022/03/12 09:43:39;;;;;;;8.75;6.10;;;;;;;14.48;20.28;100600.44;10346958;28;20045;-60
2022/03/12 09:48:40;;;;;;;7.10;5.55;;;;;;;14.63;19.90;100594.72;10343844;28;20053;-60
2022/03/12 09:53:41;;;;;;;6.40;5.65;;;;;;;14.82;19.85;100593.88;10342764;28;20530;-60
2022/03/12 09:58:43;;;;;;;6.38;5.78;;;;;;;14.80;20.13;100599.38;10350625;28;20053;-58
2022/03/12 10:03:45;;;;;;;7.20;6.50;;;;;;;15.15;19.53;100587.16;10343609;28;20055;-60
2022/03/12 10:08:46;;;;;;;6.95;6.07;;;;;;;15.66;19.59;100594.91;10346136;28;20128;-60
2022/03/12 10:13:47;;;;;;;7.00;6.05;;;;;;;16.70;18.40;100590.97;10338383;28;20434;-60
2022/03/12 10:18:49;;;;;;;5.95;5.28;;;;;;;18.80;16.73;100555.47;10336422;28;20046;-59
2022/03/12 10:23:51;;;;;;;7.13;5.95;;;;;;;20.18;15.61;100559.75;10338101;28;20058;-60
2022/03/12 10:28:52;;;;;;;7.50;5.50;;;;;;;21.09;14.71;100571.53;10343428;28;20067;-60
2022/03/12 10:34:21;;;;;;;6.35;5.82;;;;;;;20.50;15.20;100569.47;10341359;28;20060;-58
2022/03/12 10:40:00;;;;;;;6.13;5.45;;;;;;;20.14;15.57;100557.38;10342430;28;20492;-61
2022/03/12 10:45:14;;;;;;;6.90;6.30;;;;;;;20.91;15.47;100554.78;10338427;28;20057;-60
2022/03/12 10:50:16;;;;;;;9.05;6.28;;;;;;;21.76;14.50;100550.78;10339750;28;20079;-59
2022/03/12 10:55:22;;;;;;;6.18;5.57;;;;;;;25.50;11.36;100546.28;10336777;28;20088;-60
2022/03/12 11:00:26;;;;;;;6.47;5.78;;;;;;;27.67;10.56;100548.84;10344642;28;20239;-60
2022/03/12 11:05:36;;;;;;;6.38;5.78;;;;;;;27.92;10.35;100534.22;10340912;28;20060;-60
2022/03/12 11:10:43;;;;;;;5.72;5.22;;;;;;;27.86;10.36;100539.56;10342877;28;20057;-58
2022/03/12 11:15:45;;;;;;;6.70;5.50;;;;;;;27.42;10.69;100530.63;10355514;28;20045;-59
2022/03/12 11:20:46;;;;;;;6.15;5.65;;;;;;;29.82;9.78;100516.00;10344200;28;20046;-60
2022/03/12 11:25:56;;;;;;;6.53;5.85;;;;;;;29.92;9.46;100535.34;10338829;28;20049;-60
2022/03/12 11:30:57;;;;;;;6.53;5.93;;;;;;;29.84;9.12;100514.63;10336158;28;20875;-60
2022/03/12 11:36:03;;;;;;;6.95;6.13;;;;;;;27.81;10.34;100533.94;10332883;28;20046;-60
2022/03/12 11:41:11;;;;;;;6.13;5.40;;;;;;;29.33;9.64;100525.38;10336729;28;20053;-60
2022/03/12 11:46:13;;;;;;;6.57;5.97;;;;;;;29.25;9.67;100506.59;10340126;28;20060;-59
2022/03/12 11:51:18;;;;;;;6.60;6.00;;;;;;;29.80;9.26;100466.81;10334162;28;20048;-61
2022/03/12 11:56:20;;;;;;;6.13;5.55;;;;;;;30.57;9.17;100492.88;10333615;28;20598;-60
2022/03/12 12:01:22;;;;;;;8.35;6.15;;;;;;;30.75;8.73;100493.69;10336154;28;20053;-61
2022/03/12 12:06:25;;;;;;;5.88;5.38;;;;;;;31.45;8.65;100491.34;10338909;28;20060;-61
2022/03/12 12:11:27;;;;;;;6.13;5.57;;;;;;;32.43;8.16;100465.66;10341737;28;20064;-62
2022/03/12 12:16:29;;;;;;;6.40;5.55;;;;;;;32.41;8.17;100465.91;10352190;28;20037;-61
2022/03/12 12:21:30;;;;;;;6.35;5.78;;;;;;;33.61;7.62;100465.44;10355898;28;20160;-61
2022/03/12 12:26:34;;;;;;;6.72;6.00;;;;;;;33.93;7.36;100472.69;10357458;28;20056;-61
2022/03/12 12:31:45;;;;;;;5.57;5.07;;;;;;;35.17;6.94;100443.78;10354233;28;20372;-61
2022/03/12 12:36:59;;;;;;;8.88;5.80;;;;;;;35.86;6.81;100457.00;10346815;28;20052;-61
2022/03/12 12:42:05;;;;;;;6.18;5.68;;;;;;;36.23;6.47;100456.41;10341892;28;20555;-61
2022/03/12 12:47:10;;;;;;;6.35;5.75;;;;;;;35.97;6.77;100446.66;10347122;28;20143;-62
2022/03/12 12:52:11;;;;;;;6.45;5.95;;;;;;;35.86;6.90;100441.19;10343141;28;20061;-63
2022/03/12 12:57:13;;;;;;;6.88;6.28;;;;;;;34.99;7.26;100422.28;10356366;28;20195;-60
2022/03/12 13:02:14;;;;;;;6.25;5.63;;;;;;;35.12;8.26;100427.22;10357442;28;20060;-62
2022/03/12 13:07:25;;;;;;;7.43;5.93;;;;;;;35.43;7.91;100426.25;10363523;28;20061;-61
2022/03/12 13:12:41;;;;;;;6.18;5.78;;;;;;;35.51;8.09;100423.72;10357637;28;21639;-61
2022/03/12 13:17:43;;;;;;;6.20;5.60;;;;;;;36.55;7.78;100418.97;10358809;28;20150;-60
2022/03/12 13:22:45;;;;;;;8.02;6.10;;;;;;;37.38;6.89;100409.69;10348925;28;20050;-63
2022/03/12 13:27:59;;;;;;;6.72;5.97;;;;;;;37.47;6.78;100397.63;10349069;28;20042;-65
2022/03/12 13:33:07;;;;;;;5.75;5.35;;;;;;;36.50;7.67;100383.03;10350807;28;20044;-61
2022/03/12 13:38:09;;;;;;;6.43;5.93;;;;;;;36.31;7.32;100390.44;10343507;28;20056;-60
2022/03/12 13:43:10;;;;;;;6.60;5.95;;;;;;;35.13;8.26;100378.25;10342106;28;20092;-61
2022/03/12 13:48:12;;;;;;;6.30;5.70;;;;;;;35.10;8.37;100379.66;10344886;28;20081;-62
2022/03/12 13:53:13;;;;;;;5.78;5.28;;;;;;;33.76;9.54;100385.44;10347030;28;20520;-62
2022/03/12 13:58:19;;;;;;;6.22;5.72;;;;;;;30.58;11.21;100384.69;10340039;28;20061;-63
2022/03/12 14:03:22;;;;;;;7.13;6.63;;;;;;;27.87;13.76;100388.03;10331426;28;20945;-63
2022/03/12 14:08:25;;;;;;;6.95;6.35;;;;;;;27.32;14.19;100375.41;10340470;28;20045;-60
2022/03/12 14:13:26;;;;;;;6.82;6.20;;;;;;;29.73;12.91;100368.22;10346914;28;20132;-60
2022/03/12 14:18:35;;;;;;;8.55;7.18;;;;;;;30.68;12.02;100368.31;10343433;28;20192;-61
2022/03/12 14:23:36;;;;;;;6.95;6.45;;;;;;;29.31;12.86;100370.47;10340954;28;20781;-61
2022/03/12 14:28:39;;;;;;;6.85;6.07;;;;;;;27.07;14.69;100375.50;10343484;28;20217;-61
2022/03/12 14:33:41;;;;;;;7.55;6.85;;;;;;;25.41;15.99;100373.19;10345839;28;20229;-61
2022/03/12 14:38:43;;;;;;;7.55;6.80;;;;;;;24.79;16.91;100370.13;10340425;28;20045;-60
2022/03/12 14:43:44;;;;;;;;;;;;;;;24.06;17.63;100368.31;10344882;28;20506;-60
2022/03/12 14:48:46;;;;;;;8.80;8.05;;;;;;;23.15;18.49;100348.72;10338580;28;20023;-64
2022/03/12 14:53:48;;;;;;;7.03;6.40;;;;;;;22.21;19.47;100336.50;10331252;28;20050;-60
2022/03/12 14:58:51;;;;;;;8.18;6.78;;;;;;;21.81;20.58;100364.13;10339304;28;20049;-61
2022/03/12 15:03:53;;;;;;;6.63;6.03;;;;;;;21.33;22.11;100355.69;10341382;28;20060;-60
2022/03/12 15:09:04;;;;;;;8.25;7.55;;;;;;;20.91;21.27;100358.13;10344993;28;20147;-59
2022/03/12 15:14:06;;;;;;;7.97;7.18;;;;;;;20.38;21.76;100349.25;10348499;28;20056;-61
2022/03/12 15:19:15;;;;;;;10.50;8.17;;;;;;;20.43;22.75;100365.75;10344933;28;20207;-64
2022/03/12 15:24:16;;;;;;;8.27;7.40;;;;;;;20.45;23.59;100359.13;10343135;28;20885;-61
2022/03/12 15:29:29;;;;;;;8.07;7.28;;;;;;;20.02;22.64;100348.06;10344686;28;20065;-60
2022/03/12 15:34:34;;;;;;;8.85;8.00;;;;;;;19.84;23.53;100350.28;10345360;28;20059;-60
2022/03/12 15:39:35;;;;;;;7.88;7.07;;;;;;;19.60;24.19;100347.53;10339781;28;20684;-61
2022/03/12 15:44:37;;;;;;;8.18;7.38;;;;;;;19.39;23.95;100345.50;10347567;28;20050;-61
2022/03/12 15:49:39;;;;;;;8.00;7.18;;;;;;;18.92;24.33;100356.41;10338863;28;20653;-61
2022/03/12 15:54:40;;;;;;;8.38;7.70;;;;;;;18.40;25.13;100360.44;10349417;28;20136;-60
2022/03/12 15:59:41;;;;;;;8.25;7.32;;;;;;;18.24;25.73;100354.06;10343087;28;20080;-61
2022/03/12 16:04:45;;;;;;;7.38;6.70;;;;;;;18.08;26.15;100343.31;10342090;28;20292;-61
2022/03/12 16:09:46;;;;;;;8.90;8.00;;;;;;;17.77;26.52;100325.13;10339162;28;20042;-60
2022/03/12 16:14:48;;;;;;;7.75;7.00;;;;;;;17.73;26.76;100345.31;10332022;28;20503;-63
2022/03/12 16:19:50;;;;;;;7.60;6.70;;;;;;;17.29;27.90;100344.59;10335432;28;20641;-60
2022/03/12 16:24:51;;;;;;;6.85;6.22;;;;;;;17.09;28.06;100337.81;10341869;28;20077;-61
2022/03/12 16:29:53;;;;;;;8.23;7.53;;;;;;;16.93;28.23;100328.72;10345993;28;20042;-63
2022/03/12 16:34:54;;;;;;;8.88;7.10;;;;;;;16.56;28.21;100319.13;10342451;28;20090;-60
2022/03/12 16:39:56;;;;;;;8.35;7.47;;;;;;;16.50;27.80;100322.44;10348752;28;20055;-60
2022/03/12 16:44:58;;;;;;;9.15;7.65;;;;;;;16.26;28.00;100307.88;10352360;28;20519;-60
2022/03/12 16:50:00;;;;;;;8.50;7.70;;;;;;;15.98;28.40;100304.53;10348520;28;20094;-60
2022/03/12 16:55:02;;;;;;;8.50;7.53;;;;;;;15.85;28.51;100313.00;10356654;28;20041;-61
2022/03/12 17:00:04;;;;;;;9.20;7.65;;;;;;;15.74;29.03;100305.16;10355219;28;20511;-59
2022/03/12 17:05:06;;;;;;;11.40;8.45;;;;;;;15.52;28.58;100291.25;10352287;28;20049;-60
2022/03/12 17:10:08;;;;;;;10.70;8.55;;;;;;;15.35;28.77;100300.13;10352206;28;20084;-61
2022/03/12 17:15:10;;;;;;;10.30;8.85;;;;;;;15.23;28.90;100306.72;10353868;28;20338;-60
2022/03/12 17:20:12;;;;;;;9.98;8.98;;;;;;;14.95;28.93;100304.06;10355501;28;20046;-61
2022/03/12 17:25:14;;;;;;;10.07;9.00;;;;;;;14.82;28.86;100312.50;10353053;28;20049;-61
2022/03/12 17:30:18;;;;;;;9.85;8.48;;;;;;;14.61;28.49;100296.66;10353581;28;20566;-60
2022/03/12 17:35:20;;;;;;;;;;;;;;;14.62;28.59;100311.72;10375024;28;20069;-61
2022/03/12 17:40:22;;;;;;;10.63;9.43;;;;;;;14.41;28.50;100312.78;10376888;28;20011;-61
2022/03/12 17:45:25;;;;;;;11.02;9.90;;;;;;;14.29;28.51;100304.09;10384191;28;20084;-61
2022/03/12 17:50:27;;;;;;;10.43;9.02;;;;;;;14.13;28.50;100320.75;10401256;28;20042;-60
2022/03/12 17:55:28;;;;;;;10.48;9.30;;;;;;;13.84;28.84;100309.28;10404466;28;20053;-60
2022/03/12 18:00:31;;;;;;;9.65;8.65;;;;;;;13.78;29.26;100332.94;10399563;28;20037;-60
2022/03/12 18:05:35;;;;;;;11.10;9.87;;;;;;;13.74;29.02;100331.53;10394425;28;20064;-60
2022/03/12 18:10:37;;;;;;;14.55;12.00;;;;;;;13.64;29.35;100338.72;10394028;28;20049;-61
2022/03/12 18:15:38;;;;;;;11.93;10.55;;;;;;;13.61;29.52;100336.31;10398060;28;20088;-59
2022/03/12 18:20:40;;;;;;;11.50;10.30;;;;;;;13.53;29.73;100334.34;10386493;28;20069;-60
2022/03/12 18:25:49;;;;;;;11.88;10.65;;;;;;;13.45;30.18;100339.59;10385725;28;20060;-61
2022/03/12 18:30:51;;;;;;;11.45;9.38;;;;;;;13.37;30.28;100345.59;10392733;28;20049;-67
2022/03/12 18:35:53;;;;;;;10.52;9.43;;;;;;;13.16;30.28;100332.31;10393270;28;20110;-61
2022/03/12 18:40:54;;;;;;;10.57;9.57;;;;;;;13.10;30.39;100348.91;10395857;28;20160;-61
2022/03/12 18:45:55;;;;;;;14.00;9.68;;;;;;;12.95;30.66;100332.41;10372279;28;20140;-59
2022/03/12 18:50:57;;;;;;;11.27;9.95;;;;;;;12.85;30.53;100339.56;10358506;28;20532;-60
2022/03/12 18:55:59;;;;;;;11.18;9.77;;;;;;;12.81;30.88;100354.19;10376998;28;20445;-59
2022/03/12 19:01:01;;;;;;;10.57;8.90;;;;;;;12.64;30.74;100343.16;10390618;28;20049;-60
2022/03/12 19:06:03;;;;;;;11.32;10.13;;;;;;;12.62;30.62;100345.09;10389726;28;20056;-60
2022/03/12 19:11:05;;;;;;;12.75;10.32;;;;;;;12.57;30.78;100352.69;10384208;28;20045;-59
2022/03/12 19:16:09;;;;;;;10.40;9.30;;;;;;;12.44;30.90;100336.88;10384599;28;20571;-61
2022/03/12 19:21:11;;;;;;;11.10;10.02;;;;;;;12.46;30.12;100358.09;10390867;28;20050;-59
2022/03/12 19:26:13;;;;;;;10.43;9.43;;;;;;;12.37;30.14;100344.59;10385819;28;20060;-59
2022/03/12 19:31:18;;;;;;;12.20;9.80;;;;;;;12.31;29.54;100342.47;10382490;28;20143;-59
2022/03/12 19:36:21;;;;;;;12.27;11.02;;;;;;;12.34;29.59;100350.19;10388085;28;21072;-60
2022/03/12 19:41:23;;;;;;;10.80;9.68;;;;;;;12.19;29.19;100343.53;10391833;28;20091;-60
2022/03/12 19:46:25;;;;;;;12.48;10.75;;;;;;;12.10;29.16;100354.97;10389220;28;20053;-60
2022/03/12 19:51:26;;;;;;;12.98;9.68;;;;;;;11.93;28.68;100333.22;10386516;28;20101;-60
2022/03/12 19:56:28;;;;;;;12.50;11.30;;;;;;;11.90;28.84;100336.13;10384229;28;20054;-60
2022/03/12 20:01:29;;;;;;;12.52;10.65;;;;;;;11.92;28.74;100344.00;10388129;28;20041;-60
2022/03/12 20:06:31;;;;;;;12.70;11.43;;;;;;;11.84;28.65;100336.66;10391200;28;20054;-61
2022/03/12 20:11:32;;;;;;;15.80;14.20;;;;;;;11.71;28.35;100325.31;10378674;28;20568;-61
2022/03/12 20:16:34;;;;;;;14.00;12.63;;;;;;;11.66;28.51;100333.72;10370441;28;20038;-59
2022/03/12 20:21:36;;;;;;;13.02;11.75;;;;;;;11.53;28.08;100333.91;10374870;28;20053;-59
2022/03/12 20:26:38;;;;;;;12.70;11.48;;;;;;;11.52;27.98;100328.69;10382603;28;20159;-61
2022/03/12 20:31:40;;;;;;;11.65;10.30;;;;;;;11.25;27.61;100290.03;10382567;28;20088;-61
2022/03/12 20:36:47;;;;;;;11.52;10.32;;;;;;;11.40;27.90;100330.56;10383354;28;20478;-60
2022/03/12 20:41:49;;;;;;;10.60;8.82;;;;;;;11.38;27.39;100327.16;10374713;28;20065;-60
2022/03/12 20:46:51;;;;;;;10.48;9.40;;;;;;;11.28;27.16;100322.59;10378344;28;20050;-59
2022/03/12 20:51:52;;;;;;;12.25;10.10;;;;;;;11.18;27.29;100328.81;10381921;28;20144;-60
2022/03/12 20:56:53;;;;;;;10.65;9.38;;;;;;;11.07;26.95;100321.69;10377465;28;20127;-59
2022/03/12 21:01:55;;;;;;;10.93;9.82;;;;;;;11.06;26.90;100326.16;10377547;28;20057;-60
2022/03/12 21:07:02;;;;;;;10.43;9.23;;;;;;;11.00;26.96;100331.16;10367155;28;20226;-60
2022/03/12 21:12:06;;;;;;;11.30;8.50;;;;;;;11.02;27.39;100321.22;10375327;28;20064;-60
2022/03/12 21:17:08;;;;;;;9.43;8.43;;;;;;;11.00;26.88;100313.34;10374150;28;20113;-62
2022/03/12 21:22:09;;;;;;;9.80;8.77;;;;;;;10.95;27.08;100320.88;10376675;28;20050;-61
2022/03/12 21:27:11;;;;;;;9.85;8.80;;;;;;;10.93;26.65;100322.84;10379635;28;20420;-61
2022/03/12 21:32:14;;;;;;;10.35;9.35;;;;;;;10.81;26.56;100308.69;10380799;28;20152;-60
2022/03/12 21:37:16;;;;;;;11.50;10.33;;;;;;;10.73;26.86;100316.44;10362355;28;20103;-60
2022/03/12 21:42:26;;;;;;;11.43;9.70;;;;;;;10.57;26.76;100303.53;10357562;28;20074;-60
2022/03/12 21:47:28;;;;;;;10.93;9.80;;;;;;;10.59;27.27;100315.72;10354461;28;20091;-60
2022/03/12 21:52:29;;;;;;;13.88;9.50;;;;;;;10.57;27.13;100301.69;10369403;28;20121;-60
2022/03/12 21:57:31;;;;;;;12.80;9.80;;;;;;;10.45;27.53;100292.03;10373605;28;20109;-60
2022/03/12 22:02:32;;;;;;;11.55;10.32;;;;;;;10.32;27.67;100289.44;10351567;28;20062;-60
2022/03/12 22:07:35;;;;;;;12.38;11.00;;;;;;;10.29;27.56;100296.84;10346766;28;20053;-60
2022/03/12 22:12:37;;;;;;;11.60;10.40;;;;;;;10.31;28.22;100310.84;10344552;28;20045;-61
2022/03/12 22:17:39;;;;;;;10.70;9.60;;;;;;;10.17;28.36;100294.16;10340652;28;20058;-59
2022/03/12 22:22:51;;;;;;;10.85;9.73;;;;;;;10.06;28.34;100275.53;10335255;28;20045;-58
2022/03/12 22:27:54;;;;;;;11.10;10.02;;;;;;;10.06;28.17;100286.19;10338369;28;20049;-59
2022/03/12 22:32:57;;;;;;;12.10;9.68;;;;;;;10.04;28.11;100277.47;10343098;28;20176;-61
2022/03/12 22:37:59;;;;;;;10.70;9.38;;;;;;;10.01;28.09;100267.06;10345596;28;20065;-60
2022/03/12 22:43:01;;;;;;;12.15;9.45;;;;;;;10.03;27.63;100270.47;10344127;28;20073;-60
2022/03/12 22:48:03;;;;;;;10.13;9.13;;;;;;;9.96;27.64;100258.59;10337844;28;20045;-60
2022/03/12 22:53:06;;;;;;;11.35;9.15;;;;;;;9.94;27.59;100260.53;10349521;28;20103;-62
2022/03/12 22:58:12;;;;;;;11.65;9.98;;;;;;;9.83;27.68;100238.31;10366838;28;20637;-63
2022/03/12 23:03:23;;;;;;;10.25;9.25;;;;;;;9.94;27.43;100265.84;10380291;28;20629;-61
2022/03/12 23:13:56;;;;;;;10.65;9.55;;;;;;;9.76;27.70;100250.38;10356957;28;20483;-62
2022/03/12 23:19:07;;;;;;;10.48;9.20;;;;;;;9.58;27.50;100231.38;10363329;28;20069;-61
2022/03/12 23:24:09;;;;;;;10.18;9.15;;;;;;;9.55;27.83;100232.44;10356917;28;20046;-62
2022/03/12 23:29:12;;;;;;;11.65;9.60;;;;;;;9.53;28.02;100237.03;10354037;28;20045;-62